Accueil
METAR-TAF:

METAR-TAF

Aéroports :

Base des Forces canadiennes Valcartier

Valcartier, Québec, Canada

latitude: 46-54N, longitude: 071-30W, altitude: 168 m

Observation

Le bulletin a été fait il y a 1 heure et 34 minutes, à 12:00 UTC
Vent 5 kt de ouest, variant entre sud-ouest et ouest/nord-ouest
Température 6°C
Humidité 70%
Pression 1020 hPa
Visibilité: 14.5 km
Quelques nuages à une hauteur de 5100 ft
Nuages fragmentés à une hauteur de 6700 ft

METAR: CYOY 011200Z AUTO 27005KT 220V300 9SM FEW051 BKN067 06/01 A3012 RMK SLP207

Heure: 09:34 (13:34 UTC)


TAF: absent

Observations et prévisions météorologiques de plus de 4000 aéroports (messages METAR et TAF).

Les stations disponibles sont représentées par des disques jaunes et rouges sur la carte.

Passer la souris dessus pour voir le nom de la station.

Cliquer dessus pour voir les observations et prévisions météorologiques.

Pour changer de carte: cliquez sur les boutons verts avec une croix noire pour zoomer, sur le bouton vert avec un tiret pour effectuer un zoom arrière, ou sur les flèches vertes pour les cartes adjacentes.


METAR-TAF: